createdAt,value
2023-01-30T00:02:34.253Z,7.93
2023-01-30T00:07:33.137Z,8.13
2023-01-30T00:12:31.893Z,7.50
2023-01-30T00:17:32.072Z,7.67
2023-01-30T00:22:30.931Z,7.73
2023-01-30T00:27:29.702Z,7.73
2023-01-30T00:32:28.763Z,7.67
2023-01-30T00:37:30.742Z,8.02
2023-01-30T00:42:47.317Z,7.72
2023-01-30T00:47:46.499Z,8.23
2023-01-30T00:52:46.710Z,6.73
2023-01-30T00:57:46.539Z,7.90
2023-01-30T01:02:45.372Z,8.30
2023-01-30T01:07:44.240Z,7.03
2023-01-30T01:12:44.863Z,7.33
2023-01-30T01:17:43.962Z,7.22
2023-01-30T01:22:43.216Z,7.13
2023-01-30T01:27:42.039Z,6.63
2023-01-30T01:32:42.360Z,7.88
2023-01-30T01:37:41.654Z,7.87
2023-01-30T01:42:40.985Z,7.97
2023-01-30T01:47:43.472Z,8.32
2023-01-30T01:52:43.490Z,8.43
2023-01-30T01:57:47.445Z,9.02
2023-01-30T02:02:54.853Z,9.82
2023-01-30T02:08:00.648Z,10.52
2023-01-30T02:13:00.524Z,9.93
2023-01-30T02:18:00.718Z,13.07
2023-01-30T02:23:26.401Z,14.65
2023-01-30T02:28:42.159Z,17.48
2023-01-30T02:33:55.133Z,15.55
2023-01-30T02:39:04.014Z,13.20
2023-01-30T02:44:06.789Z,15.48
2023-01-30T02:49:12.321Z,17.53
2023-01-30T02:54:13.147Z,19.73
2023-01-30T02:59:14.767Z,16.48
2023-01-30T03:04:36.056Z,16.60
2023-01-30T03:09:48.325Z,14.60
2023-01-30T03:14:52.035Z,13.32
2023-01-30T03:19:54.312Z,11.97
2023-01-30T03:24:55.569Z,13.77
2023-01-30T03:29:54.526Z,12.38
2023-01-30T03:34:54.892Z,14.75
2023-01-30T03:39:54.423Z,14.30
2023-01-30T03:44:53.630Z,13.10
2023-01-30T03:49:52.530Z,14.90
2023-01-30T03:54:52.951Z,14.57
2023-01-30T03:59:52.047Z,14.35
2023-01-30T04:04:51.116Z,14.50
2023-01-30T04:09:50.163Z,16.67
2023-01-30T04:14:52.927Z,17.90
2023-01-30T04:20:11.659Z,18.95
2023-01-30T04:25:16.512Z,21.48
2023-01-30T04:30:18.043Z,19.77
2023-01-30T04:35:19.604Z,16.63
2023-01-30T04:40:19.195Z,15.55
2023-01-30T04:45:20.221Z,18.07
2023-01-30T04:50:20.951Z,16.73
2023-01-30T04:55:20.146Z,14.65
2023-01-30T05:00:21.265Z,14.98
2023-01-30T05:05:26.723Z,14.52
2023-01-30T05:10:25.607Z,12.98
2023-01-30T05:15:25.904Z,14.35
2023-01-30T05:20:24.763Z,14.38
2023-01-30T05:25:23.748Z,15.07
2023-01-30T05:30:22.887Z,16.00
2023-01-30T05:35:23.171Z,14.65
2023-01-30T05:40:22.199Z,15.07
2023-01-30T05:45:21.136Z,16.70
2023-01-30T05:50:20.034Z,16.27
2023-01-30T05:55:20.588Z,15.80
2023-01-30T06:00:21.089Z,18.20
2023-01-30T06:05:22.279Z,16.63
2023-01-30T06:10:25.111Z,16.73
2023-01-30T06:15:24.131Z,18.43
2023-01-30T06:20:23.406Z,16.30
2023-01-30T06:25:36.680Z,21.40
2023-01-30T06:30:35.648Z,14.75
2023-01-30T06:35:35.150Z,17.73
2023-01-30T06:40:35.342Z,16.80
2023-01-30T06:45:34.713Z,15.73
2023-01-30T06:50:33.964Z,16.83
2023-01-30T06:55:34.761Z,17.80
2023-01-30T07:00:35.569Z,15.43
2023-01-30T07:05:34.335Z,18.77
2023-01-30T07:10:33.282Z,18.13
2023-01-30T07:15:32.778Z,18.75
2023-01-30T07:20:33.258Z,21.05
2023-01-30T07:25:32.259Z,17.13
2023-01-30T07:30:36.133Z,18.80
2023-01-30T07:35:38.147Z,12.27
2023-01-30T07:40:37.522Z,19.27
2023-01-30T07:45:52.556Z,17.87
2023-01-30T07:50:57.684Z,15.83
2023-01-30T07:55:56.973Z,17.30
2023-01-30T08:00:56.965Z,23.10
2023-01-30T08:05:57.157Z,30.00
2023-01-30T08:10:56.071Z,23.30
2023-01-30T08:15:55.070Z,18.60
2023-01-30T08:20:53.968Z,14.85
2023-01-30T08:25:57.450Z,15.90
2023-01-30T08:30:56.971Z,12.98
2023-01-30T08:35:57.470Z,21.92
2023-01-30T08:40:59.539Z,13.55
2023-01-30T08:45:58.641Z,15.75
2023-01-30T08:50:58.558Z,14.52
2023-01-30T08:55:59.000Z,14.55
2023-01-30T09:00:57.931Z,12.90
2023-01-30T09:05:57.159Z,13.95
2023-01-30T09:11:00.911Z,15.23
2023-01-30T09:16:00.381Z,12.80
2023-01-30T09:21:05.012Z,12.32
2023-01-30T09:26:06.789Z,14.48
2023-01-30T09:31:06.099Z,15.68
2023-01-30T09:36:05.540Z,15.85
2023-01-30T09:41:27.676Z,15.48
2023-01-30T09:46:36.270Z,19.90
2023-01-30T09:51:44.926Z,15.25
2023-01-30T09:56:45.227Z,15.30
2023-01-30T10:01:55.598Z,13.38
2023-01-30T10:07:03.376Z,15.77
2023-01-30T10:12:22.757Z,18.80
2023-01-30T10:17:38.281Z,14.15
2023-01-30T10:22:52.492Z,10.63
2023-01-30T10:27:57.107Z,12.98
2023-01-30T10:33:02.378Z,12.13
2023-01-30T10:38:12.711Z,10.82
2023-01-30T10:43:23.984Z,11.05
2023-01-30T10:48:56.427Z,9.07
2023-01-30T10:54:05.020Z,10.30
2023-01-30T10:59:26.025Z,10.67
2023-01-30T11:04:31.691Z,10.45
2023-01-30T11:09:42.011Z,11.77
2023-01-30T11:14:58.777Z,12.13
2023-01-30T11:19:59.004Z,10.93
2023-01-30T11:25:07.879Z,13.00
2023-01-30T11:30:16.177Z,17.20
2023-01-30T11:35:27.211Z,12.32
2023-01-30T11:40:29.778Z,12.30
2023-01-30T11:45:31.872Z,10.93
2023-01-30T11:50:36.434Z,10.77
2023-01-30T11:55:47.099Z,12.60
2023-01-30T12:00:53.717Z,15.13
2023-01-30T12:06:00.269Z,12.30
2023-01-30T12:11:07.864Z,12.50
2023-01-30T12:16:20.610Z,11.43
2023-01-30T12:21:41.926Z,11.60
2023-01-30T12:26:47.139Z,11.33
2023-01-30T12:31:50.225Z,12.67
2023-01-30T12:37:00.801Z,24.40
2023-01-30T12:42:25.904Z,20.50
2023-01-30T12:47:46.457Z,17.43
2023-01-30T12:53:36.482Z,17.27
2023-01-30T12:58:46.005Z,12.47
2023-01-30T13:03:53.485Z,12.50
2023-01-30T13:09:07.660Z,12.80
2023-01-30T13:14:13.067Z,15.00
2023-01-30T13:19:23.098Z,15.80
2023-01-30T13:24:31.409Z,15.18
2023-01-30T13:29:33.980Z,18.88
2023-01-30T13:34:37.708Z,15.83
2023-01-30T13:44:53.544Z,13.07
2023-01-30T13:50:08.887Z,16.60
2023-01-30T13:55:32.178Z,13.73
2023-01-30T14:00:36.415Z,11.97
2023-01-30T14:06:16.846Z,12.32
2023-01-30T14:11:34.499Z,13.48
2023-01-30T14:16:45.214Z,18.75
2023-01-30T14:21:56.892Z,22.08
2023-01-30T14:27:24.856Z,20.58
2023-01-30T14:32:56.624Z,23.17
2023-01-30T14:38:17.586Z,25.67
2023-01-30T14:43:55.677Z,21.70
2023-01-30T14:48:58.395Z,23.58
2023-01-30T14:54:00.787Z,24.35
2023-01-30T14:59:12.613Z,28.85
2023-01-30T15:04:17.733Z,23.10
2023-01-30T15:09:18.721Z,24.88
2023-01-30T15:14:29.520Z,23.13
2023-01-30T15:19:43.374Z,28.70
2023-01-30T15:25:13.819Z,30.40
2023-01-30T15:30:24.866Z,25.48
2023-01-30T15:35:34.712Z,23.50
2023-01-30T15:40:34.278Z,22.02
2023-01-30T15:45:44.689Z,23.35
2023-01-30T15:50:54.951Z,23.17
2023-01-30T15:55:56.986Z,26.08
2023-01-30T16:01:00.765Z,29.70
2023-01-30T16:11:02.040Z,32.08
2023-01-30T16:16:08.483Z,31.23
2023-01-30T16:21:11.288Z,26.73
2023-01-30T16:26:17.599Z,31.67
2023-01-30T16:31:19.872Z,35.00
2023-01-30T16:36:39.187Z,39.47
2023-01-30T16:41:40.240Z,39.30
2023-01-30T16:46:57.092Z,33.05
2023-01-30T16:52:04.786Z,30.52
2023-01-30T16:57:07.374Z,21.90
2023-01-30T17:02:08.651Z,19.10
2023-01-30T17:07:07.716Z,19.90
2023-01-30T17:12:53.275Z,20.77
2023-01-30T17:17:53.608Z,21.20
2023-01-30T17:22:53.987Z,22.37
2023-01-30T17:27:53.107Z,26.60
2023-01-30T17:32:53.406Z,22.60
2023-01-30T17:38:04.176Z,30.23
2023-01-30T17:43:05.629Z,24.63
2023-01-30T17:48:06.585Z,15.93
2023-01-30T17:53:05.639Z,18.43
2023-01-30T17:58:05.123Z,21.50
2023-01-30T18:03:05.558Z,20.63
2023-01-30T18:08:04.546Z,18.30
2023-01-30T18:13:03.407Z,19.70
2023-01-30T18:18:02.590Z,20.97
2023-01-30T18:23:03.031Z,21.03
2023-01-30T18:28:03.149Z,17.67
2023-01-30T18:33:02.265Z,17.87
2023-01-30T18:38:03.147Z,17.00
2023-01-30T18:43:02.022Z,17.93
2023-01-30T18:48:03.648Z,17.47
2023-01-30T18:53:04.025Z,27.53
2023-01-30T18:58:02.879Z,19.43
2023-01-30T19:03:03.009Z,27.03
2023-01-30T19:08:03.267Z,19.60
2023-01-30T19:13:19.183Z,15.13
2023-01-30T19:18:18.263Z,16.50
2023-01-30T19:23:18.412Z,15.17
2023-01-30T19:28:17.343Z,17.50
2023-01-30T19:33:16.246Z,15.07
2023-01-30T19:38:15.099Z,15.17
2023-01-30T19:43:15.431Z,19.80
2023-01-30T19:48:14.270Z,16.00
2023-01-30T19:53:13.204Z,15.57
2023-01-30T19:58:12.318Z,15.00
2023-01-30T20:03:16.392Z,13.90
2023-01-30T20:08:30.459Z,21.33
2023-01-30T20:13:30.927Z,14.20
2023-01-30T20:18:31.713Z,15.40
2023-01-30T20:23:30.626Z,15.73
2023-01-30T20:28:29.528Z,15.80
2023-01-30T20:33:29.212Z,14.80
2023-01-30T20:38:31.147Z,14.93
2023-01-30T20:43:32.507Z,14.53
2023-01-30T20:48:31.479Z,12.23
2023-01-30T20:53:31.796Z,14.30
2023-01-30T20:58:30.943Z,15.03
2023-01-30T21:03:29.639Z,13.10
2023-01-30T21:08:28.886Z,19.13
2023-01-30T21:13:28.986Z,15.10
2023-01-30T21:18:29.951Z,19.33
2023-01-30T21:23:30.694Z,17.33
2023-01-30T21:28:32.125Z,17.77
2023-01-30T21:33:30.907Z,16.87
2023-01-30T21:38:47.353Z,18.10
2023-01-30T21:43:50.021Z,17.77
2023-01-30T21:48:48.764Z,15.13
2023-01-30T21:53:47.657Z,17.13
2023-01-30T21:58:46.498Z,13.03
2023-01-30T22:03:47.813Z,12.57
2023-01-30T22:08:46.934Z,12.93
2023-01-30T22:13:45.828Z,12.83
2023-01-30T22:18:46.042Z,13.20
2023-01-30T22:23:48.098Z,12.47
2023-01-30T22:28:47.537Z,13.43
2023-01-30T22:33:47.235Z,15.00
2023-01-30T22:38:49.079Z,12.90
2023-01-30T22:43:50.205Z,13.27
2023-01-30T22:48:49.469Z,14.57
2023-01-30T22:53:51.738Z,12.97
2023-01-30T22:58:50.910Z,14.17
2023-01-30T23:03:54.487Z,12.47
2023-01-30T23:08:56.666Z,14.65
2023-01-30T23:13:57.226Z,14.00
2023-01-30T23:18:58.942Z,13.57
2023-01-30T23:24:01.199Z,12.20
2023-01-30T23:29:02.117Z,13.50
2023-01-30T23:34:02.479Z,12.60
2023-01-30T23:39:02.970Z,12.03
2023-01-30T23:44:02.622Z,13.53
2023-01-30T23:49:03.326Z,12.57
2023-01-30T23:54:03.933Z,13.60
2023-01-30T23:59:03.175Z,14.47
